Main page
METAR-TAF:

METAR-TAF

Airports :

Paganella, Italy

latitude: 46-09N, longitude: 011-02E, elevation: 2125 m

Current weather observation

The report was made 34 minutes ago, at 08:55 UTC
Wind 5 kt from the North
Temperature 12°C
Humidity 82%
Pressure 1024 hPa
Visibility: 1300 m
Scattered clouds
mist

METAR: LIVP 170855Z 36005KT 1300 BR SCT/// 12/09 Q1024 RMK BKN SCT060 MON INVIS VAL CLD SCT VIS MIN 1300

Time: 11:29 (09:29 UTC)


TAF: missing

Weather observations and forecasts of more than 4000 airports (METAR and TAF reports).

The available stations are represented by yellow and red dots on the map.

Hover mouse over dot to see the name of the station.

Then click to see weather observations and forecasts.

To change the map : click on the green buttons with a black cross to zoom in, on the green button with a dash to zoom out, or on the green arrows for adjacent maps.


METAR-TAF: